SARP/PSS METAR and TAF weather

Enter ICAO airport designator
Station Type Date Time Source
SARP METAR 2020/04/07 00:00 UTC NOAA

SARP 070000Z 18003KT CAVOK 22/18 Q1016


Station Type Date Time Source
SARP Decoded METAR 2020/04/07 00:00 UTC NOAA

Posadas Aero., Argentina (SARP) 27-22S 055-58W 133M
Apr 06, 2020 - 08:00 PM EDT / 2020.04.07 0000 UTC
Wind: from the S (180 degrees) at 3 MPH (3 KT):0
Visibility: greater than 7 mile(s):0
Temperature: 71 F (22 C)
Dew Point: 64 F (18 C)
Relative Humidity: 78%
Pressure (altimeter): 30.00 in. Hg (1016 hPa)
ob: SARP 070000Z 18003KT CAVOK 22/18 Q1016
cycle: 0

Station Type Date Time Source
SARP TAF 2020/04/07 00:00 UTC NOAA

TAF SARP 062300Z 0700/0724 18005KT 9999 SCT025 TX27/0718Z TN13/0710Z PROB40 0707/0711 1500 BR SCT020
BECMG 0712/0713 CAVOK

Example: see airport list